Time;durP1;ratioP1;P1;durP2;ratioP2;P2;SDS_P1;SDS_P2;PMS_P1;PMS_P2;Temp;Humidity;BMP_temperature;BMP_pressure;BME280_temperature;BME280_humidity;BME280_pressure;Samples;Min_cycle;Max_cycle;Signal;HPM_P1;HPM_P2
2022/12/31 00:08:32;;;;;;;1.38;0.52;;;11.80;99.90;;;;;;20879612;28;20040;-40
2022/12/31 00:18:33;;;;;;;1.08;0.40;;;11.80;99.90;;;;;;20866840;28;20042;-41
2022/12/31 00:28:35;;;;;;;1.60;0.93;;;11.80;99.90;;;;;;20871615;28;20566;-41
2022/12/31 00:38:38;;;;;;;5.22;1.25;;;11.80;99.90;;;;;;20861270;28;20234;-40
2022/12/31 00:48:39;;;;;;;1.02;0.43;;;11.80;99.90;;;;;;20865529;28;20088;-41
2022/12/31 00:58:41;;;;;;;1.25;0.50;;;11.90;99.90;;;;;;20866732;28;20052;-41
2022/12/31 01:08:42;;;;;;;2.28;0.98;;;11.90;99.90;;;;;;20874932;28;20131;-41
2022/12/31 01:18:43;;;;;;;1.95;0.50;;;11.90;99.90;;;;;;20864690;28;20068;-41
2022/12/31 01:28:44;;;;;;;1.77;0.60;;;11.80;99.90;;;;;;20855943;28;20067;-41
2022/12/31 01:38:45;;;;;;;2.17;1.00;;;11.60;99.90;;;;;;20861976;28;20140;-41
2022/12/31 01:48:49;;;;;;;1.88;0.40;;;11.60;99.90;;;;;;20862284;28;20641;-40
2022/12/31 01:58:54;;;;;;;8.00;2.28;;;11.50;99.90;;;;;;20861842;28;20068;-41
2022/12/31 02:08:56;;;;;;;2.90;0.60;;;11.50;99.90;;;;;;20864599;28;20129;-41
2022/12/31 02:19:29;;;;;;;1.73;0.52;;;11.40;99.90;;;;;;20858520;28;20190;-41
2022/12/31 02:29:57;;;;;;;2.38;1.02;;;11.40;99.90;;;;;;20854543;28;20662;-41
2022/12/31 02:39:59;;;;;;;1.67;0.57;;;11.40;99.90;;;;;;20854317;28;20710;-41
2022/12/31 02:50:12;;;;;;;2.90;0.77;;;11.30;99.90;;;;;;20859151;28;20522;-41
2022/12/31 03:10:35;;;;;;;2.15;0.63;;;11.20;99.90;;;;;;20861468;28;21702;-41
2022/12/31 03:31:00;;;;;;;1.73;0.57;;;11.10;99.90;;;;;;20870354;28;20771;-40
2022/12/31 03:41:01;;;;;;;2.03;0.40;;;11.10;99.90;;;;;;20876015;28;20115;-41
2022/12/31 03:51:02;;;;;;;1.00;0.30;;;11.00;99.90;;;;;;20867579;28;20068;-41
2022/12/31 04:01:03;;;;;;;1.60;0.60;;;10.90;99.90;;;;;;20869626;28;20040;-41
2022/12/31 04:11:04;;;;;;;1.30;0.65;;;10.80;99.90;;;;;;20871442;28;20037;-41
2022/12/31 04:21:05;;;;;;;0.73;0.40;;;10.70;99.90;;;;;;20874571;28;20048;-41
2022/12/31 04:31:06;;;;;;;2.65;0.63;;;10.70;99.90;;;;;;20862898;28;20133;-41
2022/12/31 04:41:16;;;;;;;2.42;1.15;;;10.60;99.90;;;;;;20864908;28;20128;-41
2022/12/31 04:51:17;;;;;;;1.85;0.93;;;10.60;99.90;;;;;;20861110;28;20120;-41
2022/12/31 05:01:19;;;;;;;6.65;0.80;;;10.50;99.90;;;;;;20861555;28;20909;-41
2022/12/31 05:11:20;;;;;;;0.88;0.35;;;10.50;99.90;;;;;;20871225;28;20083;-42
2022/12/31 05:21:21;;;;;;;2.45;1.10;;;10.50;99.90;;;;;;20864621;28;20068;-41
2022/12/31 05:31:22;;;;;;;3.88;1.73;;;10.40;99.90;;;;;;20853122;28;20179;-41
2022/12/31 05:41:23;;;;;;;2.88;1.48;;;10.50;99.90;;;;;;20862376;28;20232;-41
2022/12/31 05:51:24;;;;;;;2.10;0.95;;;10.70;99.90;;;;;;20856795;28;20127;-41
2022/12/31 06:01:25;;;;;;;2.05;1.13;;;10.90;99.90;;;;;;20853485;28;20151;-41
2022/12/31 06:11:26;;;;;;;1.67;0.90;;;11.10;99.90;;;;;;20860814;28;20037;-41
2022/12/31 06:21:27;;;;;;;1.23;0.60;;;11.30;99.90;;;;;;20857257;28;20041;-40
2022/12/31 06:31:28;;;;;;;1.88;0.50;;;11.50;99.90;;;;;;20847448;28;20163;-41
2022/12/31 06:41:30;;;;;;;1.48;0.57;;;11.60;99.90;;;;;;20853999;28;20073;-40
2022/12/31 06:51:31;;;;;;;1.58;0.85;;;11.80;99.90;;;;;;20861308;28;20148;-41
2022/12/31 07:02:00;;;;;;;1.85;1.05;;;12.10;99.90;;;;;;20865074;28;20607;-41
2022/12/31 07:12:17;;;;;;;;;;;12.30;99.90;;;;;;20871327;28;20122;-40
2022/12/31 07:22:19;;;;;;;0.55;0.22;;;12.50;99.90;;;;;;20867422;28;20356;-40
2022/12/31 07:32:26;;;;;;;0.30;0.20;;;12.70;99.90;;;;;;20859745;28;20328;-40
2022/12/31 07:42:52;;;;;;;0.80;0.40;;;12.80;99.90;;;;;;20853773;28;20095;-41
2022/12/31 07:52:53;;;;;;;0.35;0.10;;;12.90;99.90;;;;;;20860005;28;20856;-40
2022/12/31 08:03:00;;;;;;;0.80;0.17;;;13.00;99.90;;;;;;20853903;28;20835;-41
2022/12/31 08:13:04;;;;;;;0.33;0.10;;;13.00;99.90;;;;;;20863581;28;20052;-41
2022/12/31 08:23:17;;;;;;;1.55;0.43;;;13.00;99.90;;;;;;20853473;28;20079;-41
2022/12/31 08:33:27;;;;;;;0.20;0.10;;;12.90;99.90;;;;;;20786299;28;20632;-41
2022/12/31 08:44:00;;;;;;;0.63;0.30;;;12.90;99.90;;;;;;20846795;28;20177;-41
2022/12/31 08:54:02;;;;;;;1.75;0.50;;;13.00;99.90;;;;;;20856914;28;20890;-41
2022/12/31 09:04:13;;;;;;;4.07;2.42;;;12.80;99.90;;;;;;20862465;28;20426;-41
2022/12/31 09:14:40;;;;;;;2.40;1.02;;;12.90;99.90;;;;;;20856092;28;20491;-41
2022/12/31 09:24:41;;;;;;;4.82;2.28;;;13.00;99.90;;;;;;20837875;28;20511;-41
2022/12/31 09:34:48;;;;;;;4.40;2.40;;;13.10;99.90;;;;;;20853005;28;20095;-42
2022/12/31 09:45:23;;;;;;;4.90;1.93;;;13.20;99.90;;;;;;20825439;28;21838;-41
2022/12/31 09:55:44;;;;;;;1.98;0.65;;;13.20;99.90;;;;;;20837304;28;20071;-41
2022/12/31 10:06:00;;;;;;;1.92;0.63;;;13.40;99.90;;;;;;20839534;28;20123;-41
2022/12/31 10:16:30;;;;;;;2.58;1.15;;;13.60;99.90;;;;;;20833561;28;20225;-41
2022/12/31 10:26:53;;;;;;;4.20;1.77;;;13.90;99.90;;;;;;20835338;28;20300;-41
2022/12/31 10:37:05;;;;;;;1.98;1.00;;;14.00;99.90;;;;;;20812768;28;20722;-41
2022/12/31 10:47:53;;;;;;;7.38;1.65;;;14.10;99.90;;;;;;20861874;28;20603;-41
2022/12/31 10:58:05;;;;;;;4.60;1.27;;;14.10;99.90;;;;;;20816543;28;20860;-39
2022/12/31 11:08:12;;;;;;;3.63;1.45;;;14.20;99.90;;;;;;20838666;28;20037;-39
2022/12/31 11:19:01;;;;;;;2.87;0.70;;;14.20;99.90;;;;;;20850626;28;20489;-39
2022/12/31 11:29:14;;;;;;;1.00;0.50;;;14.30;99.90;;;;;;20836831;28;22044;-41
2022/12/31 11:39:45;;;;;;;4.93;0.85;;;14.30;99.90;;;;;;20861200;28;20503;-41
2022/12/31 11:49:47;;;;;;;3.63;1.60;;;14.30;99.90;;;;;;20874252;28;21820;-39
2022/12/31 11:59:53;;;;;;;4.22;2.03;;;14.30;99.90;;;;;;20896827;28;20040;-39
2022/12/31 12:09:56;;;;;;;2.45;1.05;;;14.50;99.90;;;;;;20890117;28;20079;-39
2022/12/31 12:20:03;;;;;;;1.55;1.08;;;14.50;99.90;;;;;;20846960;28;20047;-39
2022/12/31 12:30:16;;;;;;;1.48;0.70;;;14.50;99.90;;;;;;20833625;28;20120;-39
2022/12/31 12:40:22;;;;;;;12.35;1.63;;;14.40;99.90;;;;;;20872280;28;20091;-39
2022/12/31 12:50:31;;;;;;;2.45;0.57;;;14.50;99.90;;;;;;20875186;28;20322;-39
2022/12/31 13:00:57;;;;;;;1.42;0.57;;;14.70;99.90;;;;;;20887283;28;20041;-39
2022/12/31 13:11:06;;;;;;;1.67;0.60;;;14.70;99.90;;;;;;20868441;28;20809;-39
2022/12/31 13:21:34;;;;;;;4.75;1.50;;;14.60;99.90;;;;;;20869165;28;20130;-39
2022/12/31 13:31:37;;;;;;;;;;;14.40;99.90;;;;;;20858749;28;20409;-39
2022/12/31 13:41:45;;;;;;;23.10;1.98;;;14.40;99.90;;;;;;20882643;28;20276;-39
2022/12/31 13:51:54;;;;;;;3.00;0.70;;;14.30;99.90;;;;;;20888522;28;20891;-39
2022/12/31 14:02:03;;;;;;;5.10;2.17;;;14.30;99.90;;;;;;20876018;28;20029;-39
2022/12/31 14:12:37;;;;;;;7.43;3.00;;;14.10;99.90;;;;;;20851077;28;20045;-41
2022/12/31 14:23:06;;;;;;;5.93;2.55;;;14.10;99.90;;;;;;20878910;28;21983;-41
2022/12/31 14:33:24;;;;;;;2.70;1.52;;;14.00;99.90;;;;;;20883670;28;21904;-41
2022/12/31 14:43:56;;;;;;;1.98;1.02;;;13.80;99.90;;;;;;20884137;28;20236;-42
2022/12/31 14:53:57;;;;;;;5.20;1.75;;;13.70;99.90;;;;;;20889712;28;21813;-42
2022/12/31 15:03:58;;;;;;;16.05;4.93;;;13.70;99.90;;;;;;20881050;28;20475;-41
2022/12/31 15:14:30;;;;;;;8.93;4.63;;;13.70;99.90;;;;;;20884749;28;20539;-40
2022/12/31 15:24:31;;;;;;;5.38;2.90;;;13.70;99.90;;;;;;20898836;28;21784;-39
2022/12/31 15:34:35;;;;;;;6.50;2.65;;;13.70;99.90;;;;;;20892321;28;20106;-39
2022/12/31 15:44:54;;;;;;;4.30;1.73;;;13.80;99.90;;;;;;20894731;28;20276;-39
2022/12/31 15:54:56;;;;;;;3.70;1.55;;;14.10;99.90;;;;;;20889228;28;21032;-40
2022/12/31 16:04:57;;;;;;;4.80;1.65;;;14.40;99.90;;;;;;20897029;28;20128;-39
2022/12/31 16:14:58;;;;;;;7.68;3.85;;;14.60;99.90;;;;;;20895229;28;20090;-39
2022/12/31 16:25:00;;;;;;;8.55;3.95;;;14.60;99.90;;;;;;20893998;28;20033;-40
2022/12/31 16:35:02;;;;;;;3.35;1.70;;;14.70;99.90;;;;;;20888452;28;20245;-40
2022/12/31 16:45:17;;;;;;;6.65;2.83;;;14.80;99.90;;;;;;20893397;28;20481;-40
2022/12/31 16:55:23;;;;;;;5.88;2.63;;;14.80;99.90;;;;;;20884132;28;21915;-39
2022/12/31 17:05:26;;;;;;;4.55;1.65;;;14.90;99.90;;;;;;20883758;28;20449;-40
2022/12/31 17:15:38;;;;;;;3.03;1.85;;;14.90;99.90;;;;;;20884002;28;20126;-39
2022/12/31 17:25:40;;;;;;;7.70;4.55;;;14.90;99.00;;;;;;20890863;28;20049;-40
2022/12/31 17:35:45;;;;;;;4.20;2.20;;;14.80;99.30;;;;;;20891696;28;20443;-40
2022/12/31 17:45:49;;;;;;;5.55;3.50;;;14.70;99.00;;;;;;20879642;28;21848;-40
2022/12/31 17:55:52;;;;;;;4.38;2.28;;;14.60;99.30;;;;;;20888545;28;20136;-40
2022/12/31 18:05:53;;;;;;;5.28;2.25;;;14.70;96.70;;;;;;20876012;28;21730;-40
2022/12/31 18:15:54;;;;;;;5.22;2.65;;;14.80;95.50;;;;;;20879269;28;20044;-40
2022/12/31 18:25:55;;;;;;;6.60;2.10;;;14.90;93.90;;;;;;20885401;28;20048;-40
2022/12/31 18:35:56;;;;;;;3.03;1.65;;;14.90;94.50;;;;;;20888905;28;20067;-40
2022/12/31 18:45:57;;;;;;;18.58;3.42;;;14.80;93.60;;;;;;20883301;28;20052;-40
2022/12/31 18:55:58;;;;;;;9.55;1.83;;;14.90;91.60;;;;;;20916282;28;20405;-40
2022/12/31 19:05:59;;;;;;;5.13;2.13;;;14.90;91.00;;;;;;20895756;28;20341;-40
2022/12/31 19:16:01;;;;;;;4.55;1.70;;;15.00;90.50;;;;;;20899704;28;20959;-40
2022/12/31 19:26:01;;;;;;;2.60;1.20;;;15.10;85.50;;;;;;20903724;28;20044;-40
2022/12/31 19:36:06;;;;;;;2.75;1.85;;;15.30;82.30;;;;;;20887759;28;20045;-40
2022/12/31 19:46:11;;;;;;;3.63;1.65;;;15.30;82.30;;;;;;20886080;28;20373;-40
2022/12/31 19:56:16;;;;;;;3.42;1.80;;;15.30;81.80;;;;;;20900373;28;20025;-40
2022/12/31 20:06:18;;;;;;;2.95;1.30;;;15.30;81.20;;;;;;20896879;28;20446;-40
2022/12/31 20:16:21;;;;;;;11.45;2.78;;;15.10;82.20;;;;;;20894181;28;20855;-40
2022/12/31 20:26:23;;;;;;;6.57;2.00;;;15.10;81.10;;;;;;20882539;28;20574;-40
2022/12/31 20:36:25;;;;;;;4.85;1.50;;;15.00;81.90;;;;;;20881613;28;20049;-40
2022/12/31 20:46:28;;;;;;;3.90;2.05;;;15.00;82.10;;;;;;20898053;28;20106;-40
2022/12/31 20:56:32;;;;;;;7.45;2.53;;;14.90;81.50;;;;;;20887979;28;20046;-40
2022/12/31 21:06:34;;;;;;;6.20;2.30;;;14.90;83.30;;;;;;20900565;28;20485;-40
2022/12/31 21:16:35;;;;;;;7.03;2.58;;;14.90;82.30;;;;;;20894853;28;20095;-40
2022/12/31 21:26:36;;;;;;;4.22;1.88;;;14.90;82.50;;;;;;20885321;28;20420;-40
2022/12/31 21:36:37;;;;;;;2.92;1.58;;;15.00;82.00;;;;;;20880306;28;20048;-40
2022/12/31 21:46:39;;;;;;;9.30;3.67;;;15.00;80.50;;;;;;20886417;28;20049;-41
2022/12/31 21:56:40;;;;;;;6.53;1.90;;;15.10;80.50;;;;;;20887407;28;20040;-41
2022/12/31 22:06:41;;;;;;;6.15;3.00;;;15.00;81.70;;;;;;20884330;28;20059;-40
2022/12/31 22:16:42;;;;;;;11.30;4.03;;;15.10;80.00;;;;;;20882862;28;20042;-40
2022/12/31 22:26:43;;;;;;;3.75;1.92;;;15.10;80.40;;;;;;20909514;28;20044;-40
2022/12/31 22:36:44;;;;;;;7.47;2.65;;;15.00;80.40;;;;;;20903068;28;21664;-40
2022/12/31 22:46:47;;;;;;;5.55;1.45;;;15.20;77.20;;;;;;20892514;28;20045;-40
2022/12/31 22:56:48;;;;;;;4.63;2.63;;;15.10;77.90;;;;;;20891445;28;20370;-40
2022/12/31 23:06:49;;;;;;;17.60;7.88;;;15.10;77.50;;;;;;20893813;28;20181;-41
2022/12/31 23:27:11;;;;;;;23.73;13.63;;;15.10;77.90;;;;;;20896164;28;20388;-40
2022/12/31 23:37:13;;;;;;;20.60;10.18;;;15.00;79.60;;;;;;20889077;28;20045;-40
2022/12/31 23:47:14;;;;;;;21.65;11.93;;;14.90;80.70;;;;;;20909183;28;20057;-42
2022/12/31 23:57:15;;;;;;;21.48;11.20;;;14.80;83.50;;;;;;20888498;28;20040;-40
